sensor_id;sensor_type;location;lat;lon;timestamp;P1;durP1;ratioP1;P2;durP2;ratioP2
13311;SDS011;34033;48.672;9.376;2022-10-31T00:01:23;6.80;;;4.30;;
13311;SDS011;34033;48.672;9.376;2022-10-31T00:03:48;5.50;;;3.80;;
13311;SDS011;34033;48.672;9.376;2022-10-31T00:06:14;5.33;;;3.87;;
13311;SDS011;34033;48.672;9.376;2022-10-31T00:08:43;6.40;;;3.90;;
13311;SDS011;34033;48.672;9.376;2022-10-31T00:11:09;9.90;;;4.20;;
13311;SDS011;34033;48.672;9.376;2022-10-31T00:13:35;7.53;;;4.40;;
13311;SDS011;34033;48.672;9.376;2022-10-31T00:16:01;7.00;;;4.47;;
13311;SDS011;34033;48.672;9.376;2022-10-31T00:18:26;7.13;;;4.43;;
13311;SDS011;34033;48.672;9.376;2022-10-31T00:20:58;6.50;;;4.90;;
13311;SDS011;34033;48.672;9.376;2022-10-31T00:23:24;5.83;;;4.43;;
13311;SDS011;34033;48.672;9.376;2022-10-31T00:25:49;9.83;;;4.70;;
13311;SDS011;34033;48.672;9.376;2022-10-31T00:28:15;6.43;;;4.33;;
13311;SDS011;34033;48.672;9.376;2022-10-31T00:30:40;12.07;;;4.30;;
13311;SDS011;34033;48.672;9.376;2022-10-31T00:33:05;5.97;;;4.00;;
13311;SDS011;34033;48.672;9.376;2022-10-31T00:35:31;5.43;;;3.73;;
13311;SDS011;34033;48.672;9.376;2022-10-31T00:37:57;5.93;;;4.00;;
13311;SDS011;34033;48.672;9.376;2022-10-31T00:40:22;5.97;;;3.83;;
13311;SDS011;34033;48.672;9.376;2022-10-31T00:42:47;6.17;;;3.60;;
13311;SDS011;34033;48.672;9.376;2022-10-31T00:45:13;4.13;;;3.33;;
13311;SDS011;34033;48.672;9.376;2022-10-31T00:47:38;4.00;;;3.43;;
13311;SDS011;34033;48.672;9.376;2022-10-31T00:50:04;7.67;;;3.40;;
13311;SDS011;34033;48.672;9.376;2022-10-31T00:52:30;4.00;;;3.00;;
13311;SDS011;34033;48.672;9.376;2022-10-31T00:54:56;5.57;;;3.63;;
13311;SDS011;34033;48.672;9.376;2022-10-31T00:57:21;6.67;;;3.23;;
13311;SDS011;34033;48.672;9.376;2022-10-31T00:59:46;6.13;;;3.70;;
13311;SDS011;34033;48.672;9.376;2022-10-31T01:02:12;8.40;;;3.53;;
13311;SDS011;34033;48.672;9.376;2022-10-31T01:04:37;5.77;;;3.60;;
13311;SDS011;34033;48.672;9.376;2022-10-31T01:07:02;5.40;;;3.43;;
13311;SDS011;34033;48.672;9.376;2022-10-31T01:09:28;6.63;;;3.80;;
13311;SDS011;34033;48.672;9.376;2022-10-31T01:11:53;4.37;;;3.23;;
13311;SDS011;34033;48.672;9.376;2022-10-31T01:14:18;3.87;;;2.97;;
13311;SDS011;34033;48.672;9.376;2022-10-31T01:16:43;9.20;;;3.40;;
13311;SDS011;34033;48.672;9.376;2022-10-31T01:19:09;5.77;;;3.17;;
13311;SDS011;34033;48.672;9.376;2022-10-31T01:21:34;4.73;;;3.43;;
13311;SDS011;34033;48.672;9.376;2022-10-31T01:24:00;5.63;;;4.17;;
13311;SDS011;34033;48.672;9.376;2022-10-31T01:26:27;6.07;;;4.33;;
13311;SDS011;34033;48.672;9.376;2022-10-31T01:28:58;7.50;;;4.40;;
13311;SDS011;34033;48.672;9.376;2022-10-31T01:31:30;4.37;;;3.77;;
13311;SDS011;34033;48.672;9.376;2022-10-31T01:33:58;6.17;;;3.80;;
13311;SDS011;34033;48.672;9.376;2022-10-31T01:36:27;6.37;;;4.50;;
13311;SDS011;34033;48.672;9.376;2022-10-31T01:38:58;6.57;;;4.40;;
13311;SDS011;34033;48.672;9.376;2022-10-31T01:41:31;6.67;;;4.10;;
13311;SDS011;34033;48.672;9.376;2022-10-31T01:44:01;6.00;;;4.23;;
13311;SDS011;34033;48.672;9.376;2022-10-31T01:46:35;8.60;;;4.20;;
13311;SDS011;34033;48.672;9.376;2022-10-31T01:49:13;4.80;;;3.30;;
13311;SDS011;34033;48.672;9.376;2022-10-31T01:52:03;6.73;;;3.37;;
13311;SDS011;34033;48.672;9.376;2022-10-31T01:54:36;4.83;;;3.20;;
13311;SDS011;34033;48.672;9.376;2022-10-31T01:57:05;4.23;;;2.97;;
13311;SDS011;34033;48.672;9.376;2022-10-31T01:59:34;5.03;;;3.37;;
13311;SDS011;34033;48.672;9.376;2022-10-31T02:02:04;6.47;;;3.13;;
13311;SDS011;34033;48.672;9.376;2022-10-31T02:04:31;13.47;;;3.60;;
13311;SDS011;34033;48.672;9.376;2022-10-31T02:09:30;5.27;;;3.00;;
13311;SDS011;34033;48.672;9.376;2022-10-31T02:11:57;3.43;;;2.77;;
13311;SDS011;34033;48.672;9.376;2022-10-31T02:14:24;3.17;;;2.70;;
13311;SDS011;34033;48.672;9.376;2022-10-31T02:16:53;3.80;;;2.90;;
13311;SDS011;34033;48.672;9.376;2022-10-31T02:19:21;4.07;;;2.70;;
13311;SDS011;34033;48.672;9.376;2022-10-31T02:28:53;3.20;;;2.87;;
13311;SDS011;34033;48.672;9.376;2022-10-31T02:31:15;5.93;;;3.00;;
13311;SDS011;34033;48.672;9.376;2022-10-31T02:36:42;4.97;;;2.63;;
13311;SDS011;34033;48.672;9.376;2022-10-31T02:44:51;3.43;;;2.40;;
13311;SDS011;34033;48.672;9.376;2022-10-31T02:47:44;4.47;;;2.50;;
13311;SDS011;34033;48.672;9.376;2022-10-31T02:50:26;4.07;;;2.77;;
13311;SDS011;34033;48.672;9.376;2022-10-31T02:52:57;3.00;;;2.63;;
13311;SDS011;34033;48.672;9.376;2022-10-31T02:57:48;5.10;;;2.70;;
13311;SDS011;34033;48.672;9.376;2022-10-31T03:00:16;2.93;;;2.57;;
13311;SDS011;34033;48.672;9.376;2022-10-31T03:05:37;7.57;;;2.57;;
13311;SDS011;34033;48.672;9.376;2022-10-31T03:10:53;3.90;;;2.90;;
13311;SDS011;34033;48.672;9.376;2022-10-31T03:13:24;2.77;;;2.47;;
13311;SDS011;34033;48.672;9.376;2022-10-31T03:18:40;2.80;;;2.43;;
13311;SDS011;34033;48.672;9.376;2022-10-31T03:21:13;5.00;;;2.87;;
13311;SDS011;34033;48.672;9.376;2022-10-31T03:23:43;4.53;;;2.60;;
13311;SDS011;34033;48.672;9.376;2022-10-31T03:26:11;3.07;;;2.57;;
13311;SDS011;34033;48.672;9.376;2022-10-31T03:28:43;3.53;;;2.50;;
13311;SDS011;34033;48.672;9.376;2022-10-31T03:31:15;2.60;;;2.40;;
13311;SDS011;34033;48.672;9.376;2022-10-31T03:33:42;5.43;;;2.90;;
13311;SDS011;34033;48.672;9.376;2022-10-31T03:36:11;4.33;;;2.50;;
13311;SDS011;34033;48.672;9.376;2022-10-31T03:38:38;4.70;;;2.60;;
13311;SDS011;34033;48.672;9.376;2022-10-31T03:41:07;5.20;;;2.90;;
13311;SDS011;34033;48.672;9.376;2022-10-31T03:43:36;3.43;;;2.50;;
13311;SDS011;34033;48.672;9.376;2022-10-31T03:46:05;3.80;;;2.60;;
13311;SDS011;34033;48.672;9.376;2022-10-31T03:48:30;2.87;;;2.60;;
13311;SDS011;34033;48.672;9.376;2022-10-31T03:50:58;3.23;;;2.90;;
13311;SDS011;34033;48.672;9.376;2022-10-31T03:53:36;3.40;;;2.90;;
13311;SDS011;34033;48.672;9.376;2022-10-31T03:56:18;2.70;;;2.50;;
13311;SDS011;34033;48.672;9.376;2022-10-31T03:58:48;3.27;;;2.80;;
13311;SDS011;34033;48.672;9.376;2022-10-31T04:01:22;6.43;;;3.40;;
13311;SDS011;34033;48.672;9.376;2022-10-31T04:03:50;3.77;;;2.80;;
13311;SDS011;34033;48.672;9.376;2022-10-31T04:06:17;6.17;;;2.70;;
13311;SDS011;34033;48.672;9.376;2022-10-31T04:08:46;6.00;;;3.20;;
13311;SDS011;34033;48.672;9.376;2022-10-31T04:11:16;3.53;;;2.50;;
13311;SDS011;34033;48.672;9.376;2022-10-31T04:13:45;3.37;;;2.90;;
13311;SDS011;34033;48.672;9.376;2022-10-31T04:16:11;2.97;;;2.57;;
13311;SDS011;34033;48.672;9.376;2022-10-31T04:18:39;3.70;;;2.70;;
13311;SDS011;34033;48.672;9.376;2022-10-31T04:21:05;4.23;;;2.60;;
13311;SDS011;34033;48.672;9.376;2022-10-31T04:23:32;3.10;;;2.77;;
13311;SDS011;34033;48.672;9.376;2022-10-31T04:25:59;9.13;;;3.10;;
13311;SDS011;34033;48.672;9.376;2022-10-31T04:28:24;5.87;;;2.93;;
13311;SDS011;34033;48.672;9.376;2022-10-31T04:30:50;3.10;;;2.80;;
13311;SDS011;34033;48.672;9.376;2022-10-31T04:33:15;4.30;;;2.93;;
13311;SDS011;34033;48.672;9.376;2022-10-31T04:35:41;4.77;;;2.80;;
13311;SDS011;34033;48.672;9.376;2022-10-31T04:38:06;5.93;;;2.50;;
13311;SDS011;34033;48.672;9.376;2022-10-31T04:40:32;3.57;;;2.70;;
13311;SDS011;34033;48.672;9.376;2022-10-31T04:42:57;6.57;;;2.60;;
13311;SDS011;34033;48.672;9.376;2022-10-31T04:45:22;2.83;;;2.53;;
13311;SDS011;34033;48.672;9.376;2022-10-31T04:47:48;3.93;;;2.50;;
13311;SDS011;34033;48.672;9.376;2022-10-31T04:50:13;4.97;;;2.87;;
13311;SDS011;34033;48.672;9.376;2022-10-31T04:52:42;3.67;;;2.47;;
13311;SDS011;34033;48.672;9.376;2022-10-31T04:55:08;3.00;;;2.43;;
13311;SDS011;34033;48.672;9.376;2022-10-31T04:57:45;4.93;;;2.40;;
13311;SDS011;34033;48.672;9.376;2022-10-31T05:00:13;2.67;;;2.47;;
13311;SDS011;34033;48.672;9.376;2022-10-31T05:02:46;4.07;;;2.83;;
13311;SDS011;34033;48.672;9.376;2022-10-31T05:05:13;3.83;;;2.70;;
13311;SDS011;34033;48.672;9.376;2022-10-31T05:07:41;4.13;;;2.43;;
13311;SDS011;34033;48.672;9.376;2022-10-31T05:10:08;3.07;;;2.70;;
13311;SDS011;34033;48.672;9.376;2022-10-31T05:12:35;4.73;;;2.50;;
13311;SDS011;34033;48.672;9.376;2022-10-31T05:15:01;4.20;;;3.13;;
13311;SDS011;34033;48.672;9.376;2022-10-31T05:17:26;5.40;;;2.90;;
13311;SDS011;34033;48.672;9.376;2022-10-31T05:19:51;4.00;;;2.80;;
13311;SDS011;34033;48.672;9.376;2022-10-31T05:22:16;5.30;;;3.20;;
13311;SDS011;34033;48.672;9.376;2022-10-31T05:24:42;3.13;;;2.27;;
13311;SDS011;34033;48.672;9.376;2022-10-31T05:27:07;2.90;;;2.60;;
13311;SDS011;34033;48.672;9.376;2022-10-31T05:29:32;4.40;;;3.10;;
13311;SDS011;34033;48.672;9.376;2022-10-31T05:31:58;3.50;;;2.57;;
13311;SDS011;34033;48.672;9.376;2022-10-31T05:34:24;10.03;;;2.90;;
13311;SDS011;34033;48.672;9.376;2022-10-31T05:36:49;3.60;;;2.57;;
13311;SDS011;34033;48.672;9.376;2022-10-31T05:39:14;5.13;;;2.33;;
13311;SDS011;34033;48.672;9.376;2022-10-31T05:41:40;4.23;;;3.57;;
13311;SDS011;34033;48.672;9.376;2022-10-31T05:44:05;2.70;;;2.50;;
13311;SDS011;34033;48.672;9.376;2022-10-31T05:46:30;2.73;;;2.20;;
13311;SDS011;34033;48.672;9.376;2022-10-31T05:48:56;3.37;;;2.70;;
13311;SDS011;34033;48.672;9.376;2022-10-31T05:51:21;2.87;;;2.40;;
13311;SDS011;34033;48.672;9.376;2022-10-31T05:53:46;3.73;;;2.40;;
13311;SDS011;34033;48.672;9.376;2022-10-31T05:56:12;5.03;;;2.70;;
13311;SDS011;34033;48.672;9.376;2022-10-31T05:58:37;5.03;;;3.00;;
13311;SDS011;34033;48.672;9.376;2022-10-31T06:01:03;4.63;;;2.70;;
13311;SDS011;34033;48.672;9.376;2022-10-31T06:03:28;3.07;;;2.57;;
13311;SDS011;34033;48.672;9.376;2022-10-31T06:05:53;2.70;;;2.50;;
13311;SDS011;34033;48.672;9.376;2022-10-31T06:08:19;3.00;;;2.30;;
13311;SDS011;34033;48.672;9.376;2022-10-31T06:10:44;2.63;;;2.33;;
13311;SDS011;34033;48.672;9.376;2022-10-31T06:13:09;3.03;;;2.73;;
13311;SDS011;34033;48.672;9.376;2022-10-31T06:15:35;5.63;;;2.63;;
13311;SDS011;34033;48.672;9.376;2022-10-31T06:18:01;5.10;;;3.00;;
13311;SDS011;34033;48.672;9.376;2022-10-31T06:20:27;3.00;;;2.43;;
13311;SDS011;34033;48.672;9.376;2022-10-31T06:22:53;2.50;;;2.30;;
13311;SDS011;34033;48.672;9.376;2022-10-31T06:25:18;3.80;;;2.87;;
13311;SDS011;34033;48.672;9.376;2022-10-31T06:27:43;4.57;;;2.77;;
13311;SDS011;34033;48.672;9.376;2022-10-31T06:30:09;5.20;;;2.80;;
13311;SDS011;34033;48.672;9.376;2022-10-31T06:32:35;5.43;;;3.63;;
13311;SDS011;34033;48.672;9.376;2022-10-31T06:35:00;7.00;;;3.70;;
13311;SDS011;34033;48.672;9.376;2022-10-31T06:37:25;3.90;;;2.83;;
13311;SDS011;34033;48.672;9.376;2022-10-31T06:39:51;5.50;;;3.00;;
13311;SDS011;34033;48.672;9.376;2022-10-31T06:42:16;2.80;;;2.37;;
13311;SDS011;34033;48.672;9.376;2022-10-31T06:44:41;6.87;;;3.20;;
13311;SDS011;34033;48.672;9.376;2022-10-31T06:47:07;4.73;;;3.70;;
13311;SDS011;34033;48.672;9.376;2022-10-31T06:49:32;4.47;;;3.33;;
13311;SDS011;34033;48.672;9.376;2022-10-31T06:51:58;4.23;;;3.17;;
13311;SDS011;34033;48.672;9.376;2022-10-31T06:54:23;5.27;;;3.67;;
13311;SDS011;34033;48.672;9.376;2022-10-31T06:56:49;4.03;;;2.87;;
13311;SDS011;34033;48.672;9.376;2022-10-31T06:59:14;3.97;;;2.70;;
13311;SDS011;34033;48.672;9.376;2022-10-31T07:01:40;7.27;;;3.57;;
13311;SDS011;34033;48.672;9.376;2022-10-31T07:04:05;7.40;;;4.33;;
13311;SDS011;34033;48.672;9.376;2022-10-31T07:06:30;6.13;;;3.23;;
13311;SDS011;34033;48.672;9.376;2022-10-31T07:08:56;7.77;;;3.30;;
13311;SDS011;34033;48.672;9.376;2022-10-31T07:11:21;4.10;;;2.80;;
13311;SDS011;34033;48.672;9.376;2022-10-31T07:13:46;3.70;;;2.33;;
13311;SDS011;34033;48.672;9.376;2022-10-31T07:16:12;3.30;;;2.50;;
13311;SDS011;34033;48.672;9.376;2022-10-31T07:18:38;5.27;;;2.60;;
13311;SDS011;34033;48.672;9.376;2022-10-31T07:21:04;4.67;;;2.63;;
13311;SDS011;34033;48.672;9.376;2022-10-31T07:23:30;3.23;;;2.87;;
13311;SDS011;34033;48.672;9.376;2022-10-31T07:25:55;6.63;;;2.93;;
13311;SDS011;34033;48.672;9.376;2022-10-31T07:28:21;2.70;;;2.50;;
13311;SDS011;34033;48.672;9.376;2022-10-31T07:30:53;3.37;;;2.60;;
13311;SDS011;34033;48.672;9.376;2022-10-31T07:33:20;3.53;;;2.50;;
13311;SDS011;34033;48.672;9.376;2022-10-31T07:35:46;4.17;;;2.37;;
13311;SDS011;34033;48.672;9.376;2022-10-31T07:38:12;3.00;;;2.53;;
13311;SDS011;34033;48.672;9.376;2022-10-31T07:40:39;4.77;;;2.80;;
13311;SDS011;34033;48.672;9.376;2022-10-31T07:43:05;4.57;;;2.80;;
13311;SDS011;34033;48.672;9.376;2022-10-31T07:45:31;7.23;;;2.90;;
13311;SDS011;34033;48.672;9.376;2022-10-31T07:47:56;4.47;;;2.70;;
13311;SDS011;34033;48.672;9.376;2022-10-31T07:50:25;5.53;;;3.27;;
13311;SDS011;34033;48.672;9.376;2022-10-31T07:55:29;5.93;;;3.00;;
13311;SDS011;34033;48.672;9.376;2022-10-31T07:57:58;4.57;;;3.10;;
13311;SDS011;34033;48.672;9.376;2022-10-31T08:00:25;5.23;;;2.87;;
13311;SDS011;34033;48.672;9.376;2022-10-31T08:02:58;5.93;;;2.70;;
13311;SDS011;34033;48.672;9.376;2022-10-31T08:05:24;5.23;;;3.00;;
13311;SDS011;34033;48.672;9.376;2022-10-31T08:07:49;6.97;;;3.40;;
13311;SDS011;34033;48.672;9.376;2022-10-31T08:10:15;7.13;;;3.30;;
13311;SDS011;34033;48.672;9.376;2022-10-31T08:12:40;4.20;;;3.13;;
13311;SDS011;34033;48.672;9.376;2022-10-31T08:15:05;9.97;;;3.23;;
13311;SDS011;34033;48.672;9.376;2022-10-31T08:17:34;4.33;;;3.40;;
13311;SDS011;34033;48.672;9.376;2022-10-31T08:20:00;4.60;;;3.40;;
13311;SDS011;34033;48.672;9.376;2022-10-31T08:22:26;4.93;;;3.63;;
13311;SDS011;34033;48.672;9.376;2022-10-31T08:24:51;5.80;;;3.63;;
13311;SDS011;34033;48.672;9.376;2022-10-31T08:27:17;4.33;;;3.00;;
13311;SDS011;34033;48.672;9.376;2022-10-31T08:29:42;5.07;;;3.43;;
13311;SDS011;34033;48.672;9.376;2022-10-31T08:32:07;5.33;;;3.33;;
13311;SDS011;34033;48.672;9.376;2022-10-31T08:34:33;5.27;;;2.93;;
13311;SDS011;34033;48.672;9.376;2022-10-31T08:36:58;4.83;;;3.30;;
13311;SDS011;34033;48.672;9.376;2022-10-31T08:39:23;6.97;;;3.57;;
13311;SDS011;34033;48.672;9.376;2022-10-31T08:41:48;4.43;;;2.90;;
13311;SDS011;34033;48.672;9.376;2022-10-31T08:44:15;3.33;;;3.07;;
13311;SDS011;34033;48.672;9.376;2022-10-31T08:46:40;4.70;;;2.83;;
13311;SDS011;34033;48.672;9.376;2022-10-31T08:49:06;5.43;;;3.00;;
13311;SDS011;34033;48.672;9.376;2022-10-31T08:51:31;5.77;;;3.17;;
13311;SDS011;34033;48.672;9.376;2022-10-31T08:53:57;2.80;;;2.53;;
13311;SDS011;34033;48.672;9.376;2022-10-31T08:56:22;5.47;;;3.10;;
13311;SDS011;34033;48.672;9.376;2022-10-31T08:58:48;4.20;;;3.10;;
13311;SDS011;34033;48.672;9.376;2022-10-31T09:01:14;4.77;;;3.27;;
13311;SDS011;34033;48.672;9.376;2022-10-31T09:03:39;6.07;;;3.00;;
13311;SDS011;34033;48.672;9.376;2022-10-31T09:06:04;4.27;;;3.57;;
13311;SDS011;34033;48.672;9.376;2022-10-31T09:08:33;6.40;;;3.10;;
13311;SDS011;34033;48.672;9.376;2022-10-31T09:11:00;4.33;;;3.30;;
13311;SDS011;34033;48.672;9.376;2022-10-31T09:13:26;6.17;;;3.07;;
13311;SDS011;34033;48.672;9.376;2022-10-31T09:15:52;4.13;;;3.03;;
13311;SDS011;34033;48.672;9.376;2022-10-31T09:18:18;3.03;;;2.80;;
13311;SDS011;34033;48.672;9.376;2022-10-31T09:20:46;5.33;;;3.10;;
13311;SDS011;34033;48.672;9.376;2022-10-31T09:23:17;3.50;;;2.80;;
13311;SDS011;34033;48.672;9.376;2022-10-31T09:25:43;5.63;;;3.10;;
13311;SDS011;34033;48.672;9.376;2022-10-31T09:28:11;5.93;;;3.07;;
13311;SDS011;34033;48.672;9.376;2022-10-31T09:30:37;4.63;;;2.70;;
13311;SDS011;34033;48.672;9.376;2022-10-31T09:33:04;2.97;;;2.67;;
13311;SDS011;34033;48.672;9.376;2022-10-31T09:35:35;4.80;;;2.57;;
13311;SDS011;34033;48.672;9.376;2022-10-31T09:38:01;4.00;;;2.67;;
13311;SDS011;34033;48.672;9.376;2022-10-31T09:43:02;4.20;;;2.83;;
13311;SDS011;34033;48.672;9.376;2022-10-31T09:45:53;5.30;;;3.00;;
13311;SDS011;34033;48.672;9.376;2022-10-31T09:53:35;6.20;;;2.87;;
13311;SDS011;34033;48.672;9.376;2022-10-31T09:56:09;8.33;;;3.17;;
13311;SDS011;34033;48.672;9.376;2022-10-31T09:58:42;6.63;;;3.17;;
13311;SDS011;34033;48.672;9.376;2022-10-31T10:01:15;4.80;;;2.60;;
13311;SDS011;34033;48.672;9.376;2022-10-31T10:03:50;5.50;;;2.93;;
13311;SDS011;34033;48.672;9.376;2022-10-31T10:06:24;3.03;;;2.70;;
13311;SDS011;34033;48.672;9.376;2022-10-31T10:08:53;3.13;;;2.83;;
13311;SDS011;34033;48.672;9.376;2022-10-31T10:11:43;4.30;;;2.90;;
13311;SDS011;34033;48.672;9.376;2022-10-31T10:23:21;4.13;;;2.93;;
13311;SDS011;34033;48.672;9.376;2022-10-31T10:26:04;2.60;;;2.37;;
13311;SDS011;34033;48.672;9.376;2022-10-31T10:28:38;2.90;;;2.40;;
13311;SDS011;34033;48.672;9.376;2022-10-31T10:31:20;3.90;;;2.60;;
13311;SDS011;34033;48.672;9.376;2022-10-31T10:34:01;4.77;;;2.53;;
13311;SDS011;34033;48.672;9.376;2022-10-31T10:39:22;4.03;;;2.40;;
13311;SDS011;34033;48.672;9.376;2022-10-31T10:41:51;3.23;;;2.50;;
13311;SDS011;34033;48.672;9.376;2022-10-31T10:44:39;3.77;;;2.27;;
13311;SDS011;34033;48.672;9.376;2022-10-31T10:47:29;3.43;;;2.90;;
13311;SDS011;34033;48.672;9.376;2022-10-31T10:50:06;3.13;;;2.70;;
13311;SDS011;34033;48.672;9.376;2022-10-31T11:00:22;3.50;;;2.93;;
13311;SDS011;34033;48.672;9.376;2022-10-31T11:02:59;2.90;;;2.40;;
13311;SDS011;34033;48.672;9.376;2022-10-31T11:08:10;2.87;;;2.57;;
13311;SDS011;34033;48.672;9.376;2022-10-31T11:10:36;3.77;;;2.70;;
13311;SDS011;34033;48.672;9.376;2022-10-31T11:13:03;4.67;;;2.83;;
13311;SDS011;34033;48.672;9.376;2022-10-31T11:18:39;3.57;;;2.70;;
13311;SDS011;34033;48.672;9.376;2022-10-31T11:21:19;3.20;;;2.50;;
13311;SDS011;34033;48.672;9.376;2022-10-31T11:23:46;3.80;;;2.60;;
13311;SDS011;34033;48.672;9.376;2022-10-31T11:26:20;3.57;;;2.60;;
13311;SDS011;34033;48.672;9.376;2022-10-31T11:28:58;6.20;;;2.43;;
13311;SDS011;34033;48.672;9.376;2022-10-31T11:31:24;3.57;;;2.27;;
13311;SDS011;34033;48.672;9.376;2022-10-31T11:34:01;4.83;;;2.67;;
13311;SDS011;34033;48.672;9.376;2022-10-31T11:36:37;5.00;;;2.63;;
13311;SDS011;34033;48.672;9.376;2022-10-31T11:39:13;3.73;;;2.33;;
13311;SDS011;34033;48.672;9.376;2022-10-31T11:41:44;3.73;;;2.30;;
13311;SDS011;34033;48.672;9.376;2022-10-31T11:49:25;3.40;;;2.77;;
13311;SDS011;34033;48.672;9.376;2022-10-31T11:51:56;4.07;;;2.70;;
13311;SDS011;34033;48.672;9.376;2022-10-31T11:54:41;3.80;;;2.77;;
13311;SDS011;34033;48.672;9.376;2022-10-31T12:00:17;4.40;;;2.30;;
13311;SDS011;34033;48.672;9.376;2022-10-31T12:05:51;3.00;;;2.13;;
13311;SDS011;34033;48.672;9.376;2022-10-31T12:08:23;5.30;;;2.43;;
13311;SDS011;34033;48.672;9.376;2022-10-31T12:11:17;2.93;;;2.43;;
13311;SDS011;34033;48.672;9.376;2022-10-31T12:13:59;2.90;;;2.33;;
13311;SDS011;34033;48.672;9.376;2022-10-31T12:19:16;3.43;;;2.50;;
13311;SDS011;34033;48.672;9.376;2022-10-31T12:22:10;4.13;;;2.77;;
13311;SDS011;34033;48.672;9.376;2022-10-31T12:41:18;3.80;;;2.40;;
13311;SDS011;34033;48.672;9.376;2022-10-31T12:43:47;2.67;;;2.47;;
13311;SDS011;34033;48.672;9.376;2022-10-31T12:46:25;5.07;;;2.57;;
13311;SDS011;34033;48.672;9.376;2022-10-31T12:51:52;2.67;;;2.13;;
13311;SDS011;34033;48.672;9.376;2022-10-31T12:59:42;3.30;;;2.30;;
13311;SDS011;34033;48.672;9.376;2022-10-31T13:07:36;2.70;;;2.23;;
13311;SDS011;34033;48.672;9.376;2022-10-31T13:12:37;8.93;;;5.03;;
13311;SDS011;34033;48.672;9.376;2022-10-31T13:15:05;56.53;;;25.53;;
13311;SDS011;34033;48.672;9.376;2022-10-31T13:17:41;69.77;;;32.83;;
13311;SDS011;34033;48.672;9.376;2022-10-31T13:20:22;46.87;;;22.13;;
13311;SDS011;34033;48.672;9.376;2022-10-31T13:25:44;43.33;;;21.27;;
13311;SDS011;34033;48.672;9.376;2022-10-31T13:28:25;34.87;;;19.47;;
13311;SDS011;34033;48.672;9.376;2022-10-31T13:31:18;43.27;;;20.10;;
13311;SDS011;34033;48.672;9.376;2022-10-31T13:33:47;22.33;;;10.10;;
13311;SDS011;34033;48.672;9.376;2022-10-31T13:36:29;21.20;;;10.40;;
13311;SDS011;34033;48.672;9.376;2022-10-31T13:44:29;25.30;;;12.50;;
13311;SDS011;34033;48.672;9.376;2022-10-31T13:47:02;31.53;;;14.73;;
13311;SDS011;34033;48.672;9.376;2022-10-31T13:51:53;24.33;;;12.40;;
13311;SDS011;34033;48.672;9.376;2022-10-31T13:54:33;19.20;;;9.33;;
13311;SDS011;34033;48.672;9.376;2022-10-31T13:57:00;17.97;;;8.97;;
13311;SDS011;34033;48.672;9.376;2022-10-31T13:59:26;25.30;;;12.57;;
13311;SDS011;34033;48.672;9.376;2022-10-31T14:01:57;22.97;;;10.73;;
13311;SDS011;34033;48.672;9.376;2022-10-31T14:04:26;17.13;;;9.00;;
13311;SDS011;34033;48.672;9.376;2022-10-31T14:07:07;26.70;;;10.83;;
13311;SDS011;34033;48.672;9.376;2022-10-31T14:12:05;11.80;;;6.47;;
13311;SDS011;34033;48.672;9.376;2022-10-31T14:14:34;7.33;;;4.03;;
13311;SDS011;34033;48.672;9.376;2022-10-31T14:17:13;8.43;;;4.30;;
13311;SDS011;34033;48.672;9.376;2022-10-31T14:19:42;5.87;;;4.00;;
13311;SDS011;34033;48.672;9.376;2022-10-31T14:22:20;82.40;;;37.37;;
13311;SDS011;34033;48.672;9.376;2022-10-31T14:24:46;66.33;;;30.13;;
13311;SDS011;34033;48.672;9.376;2022-10-31T14:29:49;27.83;;;12.00;;
13311;SDS011;34033;48.672;9.376;2022-10-31T14:37:51;11.53;;;3.70;;
13311;SDS011;34033;48.672;9.376;2022-10-31T14:43:35;7.80;;;4.40;;
13311;SDS011;34033;48.672;9.376;2022-10-31T14:46:10;6.87;;;3.10;;
13311;SDS011;34033;48.672;9.376;2022-10-31T14:49:02;7.70;;;3.37;;
13311;SDS011;34033;48.672;9.376;2022-10-31T14:51:38;10.90;;;4.50;;
13311;SDS011;34033;48.672;9.376;2022-10-31T14:54:06;8.47;;;4.00;;
13311;SDS011;34033;48.672;9.376;2022-10-31T14:56:35;3.40;;;2.77;;
13311;SDS011;34033;48.672;9.376;2022-10-31T14:59:06;6.90;;;3.47;;
13311;SDS011;34033;48.672;9.376;2022-10-31T15:01:37;5.00;;;3.10;;
13311;SDS011;34033;48.672;9.376;2022-10-31T15:06:45;6.87;;;2.87;;
13311;SDS011;34033;48.672;9.376;2022-10-31T15:09:27;7.93;;;4.07;;
13311;SDS011;34033;48.672;9.376;2022-10-31T15:11:55;7.50;;;3.70;;
13311;SDS011;34033;48.672;9.376;2022-10-31T15:14:27;6.20;;;3.27;;
13311;SDS011;34033;48.672;9.376;2022-10-31T15:16:55;10.07;;;3.70;;
13311;SDS011;34033;48.672;9.376;2022-10-31T15:19:26;5.00;;;3.30;;
13311;SDS011;34033;48.672;9.376;2022-10-31T15:21:53;7.33;;;3.80;;
13311;SDS011;34033;48.672;9.376;2022-10-31T15:24:20;5.77;;;3.20;;
13311;SDS011;34033;48.672;9.376;2022-10-31T15:26:49;10.33;;;3.73;;
13311;SDS011;34033;48.672;9.376;2022-10-31T15:29:17;6.13;;;3.87;;
13311;SDS011;34033;48.672;9.376;2022-10-31T15:31:54;6.27;;;3.50;;
13311;SDS011;34033;48.672;9.376;2022-10-31T15:34:40;7.90;;;3.90;;
13311;SDS011;34033;48.672;9.376;2022-10-31T15:37:10;5.37;;;2.87;;
13311;SDS011;34033;48.672;9.376;2022-10-31T15:39:38;3.73;;;2.97;;
13311;SDS011;34033;48.672;9.376;2022-10-31T15:42:04;4.67;;;3.27;;
13311;SDS011;34033;48.672;9.376;2022-10-31T15:44:40;11.17;;;3.40;;
13311;SDS011;34033;48.672;9.376;2022-10-31T15:47:13;6.00;;;3.33;;
13311;SDS011;34033;48.672;9.376;2022-10-31T15:54:52;10.57;;;5.07;;
13311;SDS011;34033;48.672;9.376;2022-10-31T15:57:20;7.93;;;4.73;;
13311;SDS011;34033;48.672;9.376;2022-10-31T15:59:51;7.47;;;4.30;;
13311;SDS011;34033;48.672;9.376;2022-10-31T16:02:18;7.30;;;4.20;;
13311;SDS011;34033;48.672;9.376;2022-10-31T16:04:50;15.20;;;7.27;;
13311;SDS011;34033;48.672;9.376;2022-10-31T16:07:18;7.20;;;4.20;;
13311;SDS011;34033;48.672;9.376;2022-10-31T16:09:55;8.63;;;5.37;;
13311;SDS011;34033;48.672;9.376;2022-10-31T16:12:23;10.07;;;4.37;;
13311;SDS011;34033;48.672;9.376;2022-10-31T16:14:50;7.97;;;4.87;;
13311;SDS011;34033;48.672;9.376;2022-10-31T16:17:19;14.83;;;6.67;;
13311;SDS011;34033;48.672;9.376;2022-10-31T16:19:49;9.00;;;4.90;;
13311;SDS011;34033;48.672;9.376;2022-10-31T16:22:21;5.60;;;3.60;;
13311;SDS011;34033;48.672;9.376;2022-10-31T16:24:51;13.23;;;5.07;;
13311;SDS011;34033;48.672;9.376;2022-10-31T16:27:21;9.27;;;5.03;;
13311;SDS011;34033;48.672;9.376;2022-10-31T16:29:52;6.70;;;4.23;;
13311;SDS011;34033;48.672;9.376;2022-10-31T16:32:27;3.90;;;3.43;;
13311;SDS011;34033;48.672;9.376;2022-10-31T16:35:18;11.10;;;5.50;;
13311;SDS011;34033;48.672;9.376;2022-10-31T16:37:43;5.80;;;3.33;;
13311;SDS011;34033;48.672;9.376;2022-10-31T16:40:10;8.17;;;4.03;;
13311;SDS011;34033;48.672;9.376;2022-10-31T16:42:37;10.90;;;4.03;;
13311;SDS011;34033;48.672;9.376;2022-10-31T16:45:04;11.57;;;4.60;;
13311;SDS011;34033;48.672;9.376;2022-10-31T16:47:31;6.90;;;4.07;;
13311;SDS011;34033;48.672;9.376;2022-10-31T16:49:56;6.60;;;3.97;;
13311;SDS011;34033;48.672;9.376;2022-10-31T16:52:24;9.13;;;5.20;;
13311;SDS011;34033;48.672;9.376;2022-10-31T16:54:50;6.57;;;4.97;;
13311;SDS011;34033;48.672;9.376;2022-10-31T16:57:17;7.03;;;4.17;;
13311;SDS011;34033;48.672;9.376;2022-10-31T16:59:51;7.40;;;4.13;;
13311;SDS011;34033;48.672;9.376;2022-10-31T17:02:18;5.40;;;3.97;;
13311;SDS011;34033;48.672;9.376;2022-10-31T17:04:44;5.13;;;3.90;;
13311;SDS011;34033;48.672;9.376;2022-10-31T17:07:09;5.97;;;3.77;;
13311;SDS011;34033;48.672;9.376;2022-10-31T17:09:35;5.53;;;4.03;;
13311;SDS011;34033;48.672;9.376;2022-10-31T17:12:00;9.23;;;4.57;;
13311;SDS011;34033;48.672;9.376;2022-10-31T17:14:26;9.00;;;6.00;;
13311;SDS011;34033;48.672;9.376;2022-10-31T17:16:51;5.67;;;4.00;;
13311;SDS011;34033;48.672;9.376;2022-10-31T17:19:17;6.20;;;4.60;;
13311;SDS011;34033;48.672;9.376;2022-10-31T17:21:43;8.07;;;4.30;;